sensor_id;sensor_type;location;lat;lon;timestamp;P1;durP1;ratioP1;P2;durP2;ratioP2
45354;SDS011;31091;48.758;9.150;2023-07-29T00:02:14;5.32;;;1.30;;
45354;SDS011;31091;48.758;9.150;2023-07-29T00:04:59;2.85;;;1.70;;
45354;SDS011;31091;48.758;9.150;2023-07-29T00:07:44;3.78;;;1.40;;
45354;SDS011;31091;48.758;9.150;2023-07-29T00:10:31;4.25;;;1.73;;
45354;SDS011;31091;48.758;9.150;2023-07-29T00:13:16;3.30;;;1.85;;
45354;SDS011;31091;48.758;9.150;2023-07-29T00:16:01;4.38;;;1.67;;
45354;SDS011;31091;48.758;9.150;2023-07-29T00:18:46;3.35;;;2.00;;
45354;SDS011;31091;48.758;9.150;2023-07-29T00:21:32;2.47;;;1.30;;
45354;SDS011;31091;48.758;9.150;2023-07-29T00:24:17;3.70;;;1.55;;
45354;SDS011;31091;48.758;9.150;2023-07-29T00:27:02;4.03;;;1.85;;
45354;SDS011;31091;48.758;9.150;2023-07-29T00:29:47;3.05;;;1.40;;
45354;SDS011;31091;48.758;9.150;2023-07-29T00:32:33;4.85;;;1.63;;
45354;SDS011;31091;48.758;9.150;2023-07-29T00:35:18;4.03;;;1.77;;
45354;SDS011;31091;48.758;9.150;2023-07-29T00:38:03;2.22;;;1.52;;
45354;SDS011;31091;48.758;9.150;2023-07-29T00:40:48;5.65;;;1.98;;
45354;SDS011;31091;48.758;9.150;2023-07-29T00:43:34;2.72;;;1.30;;
45354;SDS011;31091;48.758;9.150;2023-07-29T00:46:19;5.97;;;1.40;;
45354;SDS011;31091;48.758;9.150;2023-07-29T00:49:05;2.03;;;1.60;;
45354;SDS011;31091;48.758;9.150;2023-07-29T00:51:50;2.33;;;1.40;;
45354;SDS011;31091;48.758;9.150;2023-07-29T00:54:35;3.45;;;1.60;;
45354;SDS011;31091;48.758;9.150;2023-07-29T00:57:20;2.28;;;1.70;;
45354;SDS011;31091;48.758;9.150;2023-07-29T01:00:06;5.82;;;1.52;;
45354;SDS011;31091;48.758;9.150;2023-07-29T01:02:53;3.60;;;1.45;;
45354;SDS011;31091;48.758;9.150;2023-07-29T01:05:42;5.07;;;1.42;;
45354;SDS011;31091;48.758;9.150;2023-07-29T01:08:37;1.98;;;1.60;;
45354;SDS011;31091;48.758;9.150;2023-07-29T01:17:03;6.93;;;1.75;;
45354;SDS011;31091;48.758;9.150;2023-07-29T01:22:44;4.93;;;1.67;;
45354;SDS011;31091;48.758;9.150;2023-07-29T01:25:29;3.95;;;1.33;;
45354;SDS011;31091;48.758;9.150;2023-07-29T01:28:14;1.92;;;1.40;;
45354;SDS011;31091;48.758;9.150;2023-07-29T01:31:09;8.07;;;1.50;;
45354;SDS011;31091;48.758;9.150;2023-07-29T01:33:59;5.13;;;1.77;;
45354;SDS011;31091;48.758;9.150;2023-07-29T01:36:45;2.08;;;1.60;;
45354;SDS011;31091;48.758;9.150;2023-07-29T01:39:32;2.65;;;1.60;;
45354;SDS011;31091;48.758;9.150;2023-07-29T01:42:19;4.75;;;1.55;;
45354;SDS011;31091;48.758;9.150;2023-07-29T01:45:05;3.17;;;1.65;;
45354;SDS011;31091;48.758;9.150;2023-07-29T01:47:50;3.38;;;1.80;;
45354;SDS011;31091;48.758;9.150;2023-07-29T01:50:35;2.45;;;1.45;;
45354;SDS011;31091;48.758;9.150;2023-07-29T01:53:20;7.45;;;3.17;;
45354;SDS011;31091;48.758;9.150;2023-07-29T01:56:06;4.47;;;1.92;;
45354;SDS011;31091;48.758;9.150;2023-07-29T01:58:51;2.75;;;1.50;;
45354;SDS011;31091;48.758;9.150;2023-07-29T02:01:36;3.22;;;1.33;;
45354;SDS011;31091;48.758;9.150;2023-07-29T02:04:21;2.47;;;1.63;;
45354;SDS011;31091;48.758;9.150;2023-07-29T02:07:07;4.43;;;1.50;;
45354;SDS011;31091;48.758;9.150;2023-07-29T02:09:52;2.35;;;1.58;;
45354;SDS011;31091;48.758;9.150;2023-07-29T02:12:38;1.83;;;1.10;;
45354;SDS011;31091;48.758;9.150;2023-07-29T02:15:23;7.25;;;1.52;;
45354;SDS011;31091;48.758;9.150;2023-07-29T02:18:08;5.53;;;1.83;;
45354;SDS011;31091;48.758;9.150;2023-07-29T02:20:54;4.85;;;2.10;;
45354;SDS011;31091;48.758;9.150;2023-07-29T02:23:39;2.08;;;1.88;;
45354;SDS011;31091;48.758;9.150;2023-07-29T02:26:24;4.85;;;1.77;;
45354;SDS011;31091;48.758;9.150;2023-07-29T02:29:10;6.47;;;3.20;;
45354;SDS011;31091;48.758;9.150;2023-07-29T02:31:55;4.63;;;1.65;;
45354;SDS011;31091;48.758;9.150;2023-07-29T02:34:40;4.57;;;2.20;;
45354;SDS011;31091;48.758;9.150;2023-07-29T02:37:25;2.50;;;1.77;;
45354;SDS011;31091;48.758;9.150;2023-07-29T02:40:11;2.42;;;1.60;;
45354;SDS011;31091;48.758;9.150;2023-07-29T02:42:56;2.90;;;1.60;;
45354;SDS011;31091;48.758;9.150;2023-07-29T02:45:41;1.88;;;1.20;;
45354;SDS011;31091;48.758;9.150;2023-07-29T02:48:26;3.38;;;1.80;;
45354;SDS011;31091;48.758;9.150;2023-07-29T02:51:13;3.08;;;1.42;;
45354;SDS011;31091;48.758;9.150;2023-07-29T02:53:58;2.70;;;1.42;;
45354;SDS011;31091;48.758;9.150;2023-07-29T02:56:43;4.38;;;1.70;;
45354;SDS011;31091;48.758;9.150;2023-07-29T02:59:29;5.32;;;1.58;;
45354;SDS011;31091;48.758;9.150;2023-07-29T03:02:14;5.88;;;1.75;;
45354;SDS011;31091;48.758;9.150;2023-07-29T03:05:01;3.90;;;1.60;;
45354;SDS011;31091;48.758;9.150;2023-07-29T03:07:46;2.97;;;1.40;;
45354;SDS011;31091;48.758;9.150;2023-07-29T03:10:31;1.98;;;1.33;;
45354;SDS011;31091;48.758;9.150;2023-07-29T03:13:16;2.35;;;1.50;;
45354;SDS011;31091;48.758;9.150;2023-07-29T03:16:05;2.45;;;1.67;;
45354;SDS011;31091;48.758;9.150;2023-07-29T03:18:51;2.38;;;1.40;;
45354;SDS011;31091;48.758;9.150;2023-07-29T03:21:36;3.92;;;1.60;;
45354;SDS011;31091;48.758;9.150;2023-07-29T03:24:22;2.10;;;1.50;;
45354;SDS011;31091;48.758;9.150;2023-07-29T03:27:07;4.72;;;1.70;;
45354;SDS011;31091;48.758;9.150;2023-07-29T03:29:54;2.85;;;1.50;;
45354;SDS011;31091;48.758;9.150;2023-07-29T03:32:42;4.07;;;1.63;;
45354;SDS011;31091;48.758;9.150;2023-07-29T03:35:28;2.90;;;2.00;;
45354;SDS011;31091;48.758;9.150;2023-07-29T03:38:13;3.38;;;1.50;;
45354;SDS011;31091;48.758;9.150;2023-07-29T03:40:59;2.72;;;1.40;;
45354;SDS011;31091;48.758;9.150;2023-07-29T03:43:44;3.08;;;1.60;;
45354;SDS011;31091;48.758;9.150;2023-07-29T03:46:29;3.83;;;1.83;;
45354;SDS011;31091;48.758;9.150;2023-07-29T03:49:14;2.47;;;1.35;;
45354;SDS011;31091;48.758;9.150;2023-07-29T03:51:59;4.18;;;2.05;;
45354;SDS011;31091;48.758;9.150;2023-07-29T03:54:45;2.53;;;1.67;;
45354;SDS011;31091;48.758;9.150;2023-07-29T03:57:30;2.83;;;1.83;;
45354;SDS011;31091;48.758;9.150;2023-07-29T04:00:16;6.07;;;1.98;;
45354;SDS011;31091;48.758;9.150;2023-07-29T04:03:01;4.05;;;1.42;;
45354;SDS011;31091;48.758;9.150;2023-07-29T04:05:46;3.53;;;1.80;;
45354;SDS011;31091;48.758;9.150;2023-07-29T04:08:31;4.15;;;1.70;;
45354;SDS011;31091;48.758;9.150;2023-07-29T04:11:16;3.13;;;1.63;;
45354;SDS011;31091;48.758;9.150;2023-07-29T04:14:02;3.92;;;1.33;;
45354;SDS011;31091;48.758;9.150;2023-07-29T04:16:47;1.83;;;1.30;;
45354;SDS011;31091;48.758;9.150;2023-07-29T04:19:34;2.17;;;1.50;;
45354;SDS011;31091;48.758;9.150;2023-07-29T04:22:19;2.83;;;1.45;;
45354;SDS011;31091;48.758;9.150;2023-07-29T04:25:05;2.38;;;1.50;;
45354;SDS011;31091;48.758;9.150;2023-07-29T04:27:50;3.13;;;1.70;;
45354;SDS011;31091;48.758;9.150;2023-07-29T04:30:35;4.00;;;1.70;;
45354;SDS011;31091;48.758;9.150;2023-07-29T04:33:20;5.20;;;2.05;;
45354;SDS011;31091;48.758;9.150;2023-07-29T04:36:06;5.90;;;2.08;;
45354;SDS011;31091;48.758;9.150;2023-07-29T04:38:51;4.40;;;2.10;;
45354;SDS011;31091;48.758;9.150;2023-07-29T04:41:37;3.08;;;1.67;;
45354;SDS011;31091;48.758;9.150;2023-07-29T04:44:22;7.20;;;2.15;;
45354;SDS011;31091;48.758;9.150;2023-07-29T04:47:08;3.70;;;2.17;;
45354;SDS011;31091;48.758;9.150;2023-07-29T04:49:53;4.10;;;1.80;;
45354;SDS011;31091;48.758;9.150;2023-07-29T04:52:38;4.07;;;2.63;;
45354;SDS011;31091;48.758;9.150;2023-07-29T04:55:23;3.30;;;1.88;;
45354;SDS011;31091;48.758;9.150;2023-07-29T04:58:09;9.85;;;2.30;;
45354;SDS011;31091;48.758;9.150;2023-07-29T05:00:54;6.40;;;2.47;;
45354;SDS011;31091;48.758;9.150;2023-07-29T05:03:39;5.72;;;2.20;;
45354;SDS011;31091;48.758;9.150;2023-07-29T05:06:25;5.90;;;2.10;;
45354;SDS011;31091;48.758;9.150;2023-07-29T05:09:17;6.95;;;2.10;;
45354;SDS011;31091;48.758;9.150;2023-07-29T05:12:03;6.85;;;2.10;;
45354;SDS011;31091;48.758;9.150;2023-07-29T05:14:48;18.20;;;2.65;;
45354;SDS011;31091;48.758;9.150;2023-07-29T05:17:33;6.47;;;2.80;;
45354;SDS011;31091;48.758;9.150;2023-07-29T05:20:18;6.82;;;2.22;;
45354;SDS011;31091;48.758;9.150;2023-07-29T05:23:03;4.70;;;2.50;;
45354;SDS011;31091;48.758;9.150;2023-07-29T05:25:49;4.75;;;2.22;;
45354;SDS011;31091;48.758;9.150;2023-07-29T05:28:34;9.18;;;2.38;;
45354;SDS011;31091;48.758;9.150;2023-07-29T05:31:19;6.38;;;2.75;;
45354;SDS011;31091;48.758;9.150;2023-07-29T05:34:04;11.00;;;2.55;;
45354;SDS011;31091;48.758;9.150;2023-07-29T05:36:50;5.00;;;2.22;;
45354;SDS011;31091;48.758;9.150;2023-07-29T05:39:35;2.70;;;1.73;;
45354;SDS011;31091;48.758;9.150;2023-07-29T05:42:20;4.68;;;2.53;;
45354;SDS011;31091;48.758;9.150;2023-07-29T05:45:06;8.10;;;2.40;;
45354;SDS011;31091;48.758;9.150;2023-07-29T05:47:51;6.35;;;2.58;;
45354;SDS011;31091;48.758;9.150;2023-07-29T05:50:36;2.92;;;2.20;;
45354;SDS011;31091;48.758;9.150;2023-07-29T05:53:21;4.75;;;2.67;;
45354;SDS011;31091;48.758;9.150;2023-07-29T05:56:07;7.03;;;2.78;;
45354;SDS011;31091;48.758;9.150;2023-07-29T05:58:52;5.35;;;2.40;;
45354;SDS011;31091;48.758;9.150;2023-07-29T06:01:37;6.45;;;3.00;;
45354;SDS011;31091;48.758;9.150;2023-07-29T06:04:23;3.42;;;2.30;;
45354;SDS011;31091;48.758;9.150;2023-07-29T06:07:08;5.82;;;3.08;;
45354;SDS011;31091;48.758;9.150;2023-07-29T06:09:53;3.85;;;2.55;;
45354;SDS011;31091;48.758;9.150;2023-07-29T06:12:40;5.47;;;2.72;;
45354;SDS011;31091;48.758;9.150;2023-07-29T06:15:25;4.00;;;2.20;;
45354;SDS011;31091;48.758;9.150;2023-07-29T06:18:10;4.35;;;2.95;;
45354;SDS011;31091;48.758;9.150;2023-07-29T06:20:55;4.50;;;2.15;;
45354;SDS011;31091;48.758;9.150;2023-07-29T06:23:41;4.88;;;2.97;;
45354;SDS011;31091;48.758;9.150;2023-07-29T06:26:26;8.27;;;2.90;;
45354;SDS011;31091;48.758;9.150;2023-07-29T06:29:11;3.92;;;1.77;;
45354;SDS011;31091;48.758;9.150;2023-07-29T06:31:58;5.85;;;2.53;;
45354;SDS011;31091;48.758;9.150;2023-07-29T06:34:43;4.70;;;2.35;;
45354;SDS011;31091;48.758;9.150;2023-07-29T06:37:28;5.07;;;2.72;;
45354;SDS011;31091;48.758;9.150;2023-07-29T06:40:13;5.30;;;2.33;;
45354;SDS011;31091;48.758;9.150;2023-07-29T06:42:58;5.50;;;3.10;;
45354;SDS011;31091;48.758;9.150;2023-07-29T06:45:44;3.95;;;2.50;;
45354;SDS011;31091;48.758;9.150;2023-07-29T06:48:29;3.33;;;2.20;;
45354;SDS011;31091;48.758;9.150;2023-07-29T06:51:14;5.65;;;2.92;;
45354;SDS011;31091;48.758;9.150;2023-07-29T06:53:59;4.78;;;2.72;;
45354;SDS011;31091;48.758;9.150;2023-07-29T06:56:45;3.67;;;2.60;;
45354;SDS011;31091;48.758;9.150;2023-07-29T06:59:30;3.05;;;2.22;;
45354;SDS011;31091;48.758;9.150;2023-07-29T07:02:15;5.05;;;2.55;;
45354;SDS011;31091;48.758;9.150;2023-07-29T07:05:00;5.32;;;3.08;;
45354;SDS011;31091;48.758;9.150;2023-07-29T07:07:46;4.65;;;2.40;;
45354;SDS011;31091;48.758;9.150;2023-07-29T07:10:31;3.92;;;2.30;;
45354;SDS011;31091;48.758;9.150;2023-07-29T07:13:18;3.35;;;2.40;;
45354;SDS011;31091;48.758;9.150;2023-07-29T07:16:04;4.15;;;2.20;;
45354;SDS011;31091;48.758;9.150;2023-07-29T07:18:49;3.30;;;1.92;;
45354;SDS011;31091;48.758;9.150;2023-07-29T07:21:34;2.45;;;1.90;;
45354;SDS011;31091;48.758;9.150;2023-07-29T07:24:19;3.70;;;2.30;;
45354;SDS011;31091;48.758;9.150;2023-07-29T07:27:05;3.20;;;1.80;;
45354;SDS011;31091;48.758;9.150;2023-07-29T07:29:50;2.20;;;1.70;;
45354;SDS011;31091;48.758;9.150;2023-07-29T07:32:35;2.58;;;1.67;;
45354;SDS011;31091;48.758;9.150;2023-07-29T07:35:21;2.55;;;1.42;;
45354;SDS011;31091;48.758;9.150;2023-07-29T07:38:06;2.42;;;1.77;;
45354;SDS011;31091;48.758;9.150;2023-07-29T07:40:53;5.88;;;2.03;;
45354;SDS011;31091;48.758;9.150;2023-07-29T07:43:40;3.67;;;2.20;;
45354;SDS011;31091;48.758;9.150;2023-07-29T07:46:25;2.00;;;1.60;;
45354;SDS011;31091;48.758;9.150;2023-07-29T07:49:10;3.28;;;1.95;;
45354;SDS011;31091;48.758;9.150;2023-07-29T07:51:55;2.88;;;2.05;;
45354;SDS011;31091;48.758;9.150;2023-07-29T07:54:40;3.35;;;1.40;;
45354;SDS011;31091;48.758;9.150;2023-07-29T07:57:26;4.47;;;1.92;;
45354;SDS011;31091;48.758;9.150;2023-07-29T08:00:11;4.40;;;1.88;;
45354;SDS011;31091;48.758;9.150;2023-07-29T08:02:56;3.80;;;1.98;;
45354;SDS011;31091;48.758;9.150;2023-07-29T08:05:41;3.22;;;2.10;;
45354;SDS011;31091;48.758;9.150;2023-07-29T08:08:27;4.55;;;1.98;;
45354;SDS011;31091;48.758;9.150;2023-07-29T08:11:12;6.70;;;2.10;;
45354;SDS011;31091;48.758;9.150;2023-07-29T08:13:58;5.22;;;2.03;;
45354;SDS011;31091;48.758;9.150;2023-07-29T08:16:43;2.70;;;1.67;;
45354;SDS011;31091;48.758;9.150;2023-07-29T08:19:28;2.17;;;1.70;;
45354;SDS011;31091;48.758;9.150;2023-07-29T08:22:14;4.20;;;2.00;;
45354;SDS011;31091;48.758;9.150;2023-07-29T08:24:59;4.15;;;1.50;;
45354;SDS011;31091;48.758;9.150;2023-07-29T08:27:44;3.17;;;1.40;;
45354;SDS011;31091;48.758;9.150;2023-07-29T08:30:29;1.83;;;1.50;;
45354;SDS011;31091;48.758;9.150;2023-07-29T08:33:15;1.98;;;1.50;;
45354;SDS011;31091;48.758;9.150;2023-07-29T08:36:00;4.55;;;1.55;;
45354;SDS011;31091;48.758;9.150;2023-07-29T08:38:46;5.75;;;1.70;;
45354;SDS011;31091;48.758;9.150;2023-07-29T08:41:32;1.60;;;1.30;;
45354;SDS011;31091;48.758;9.150;2023-07-29T08:44:23;2.00;;;1.70;;
45354;SDS011;31091;48.758;9.150;2023-07-29T08:47:11;2.42;;;1.45;;
45354;SDS011;31091;48.758;9.150;2023-07-29T08:49:58;2.50;;;1.60;;
45354;SDS011;31091;48.758;9.150;2023-07-29T08:52:44;3.05;;;1.90;;
45354;SDS011;31091;48.758;9.150;2023-07-29T08:55:30;2.83;;;1.40;;
45354;SDS011;31091;48.758;9.150;2023-07-29T08:58:16;5.20;;;1.85;;
45354;SDS011;31091;48.758;9.150;2023-07-29T09:01:01;1.65;;;1.27;;
45354;SDS011;31091;48.758;9.150;2023-07-29T09:03:46;2.22;;;1.50;;
45354;SDS011;31091;48.758;9.150;2023-07-29T09:06:32;2.83;;;1.50;;
45354;SDS011;31091;48.758;9.150;2023-07-29T09:09:17;3.60;;;1.52;;
45354;SDS011;31091;48.758;9.150;2023-07-29T09:12:02;2.03;;;1.52;;
45354;SDS011;31091;48.758;9.150;2023-07-29T09:14:51;2.40;;;1.40;;
45354;SDS011;31091;48.758;9.150;2023-07-29T09:17:36;3.53;;;1.95;;
45354;SDS011;31091;48.758;9.150;2023-07-29T09:20:27;3.72;;;1.63;;
45354;SDS011;31091;48.758;9.150;2023-07-29T09:23:13;1.92;;;1.25;;
45354;SDS011;31091;48.758;9.150;2023-07-29T09:26:02;3.08;;;1.40;;
45354;SDS011;31091;48.758;9.150;2023-07-29T09:28:51;2.15;;;1.63;;
45354;SDS011;31091;48.758;9.150;2023-07-29T09:31:36;3.25;;;1.42;;
45354;SDS011;31091;48.758;9.150;2023-07-29T09:34:21;5.38;;;1.23;;
45354;SDS011;31091;48.758;9.150;2023-07-29T09:37:06;3.22;;;1.80;;
45354;SDS011;31091;48.758;9.150;2023-07-29T09:39:52;1.85;;;1.40;;
45354;SDS011;31091;48.758;9.150;2023-07-29T09:42:37;3.03;;;1.25;;
45354;SDS011;31091;48.758;9.150;2023-07-29T09:45:23;2.05;;;1.10;;
45354;SDS011;31091;48.758;9.150;2023-07-29T09:48:09;2.22;;;1.70;;
45354;SDS011;31091;48.758;9.150;2023-07-29T09:50:56;2.72;;;1.63;;
45354;SDS011;31091;48.758;9.150;2023-07-29T09:53:42;2.70;;;1.73;;
45354;SDS011;31091;48.758;9.150;2023-07-29T09:56:27;2.13;;;1.70;;
45354;SDS011;31091;48.758;9.150;2023-07-29T09:59:13;2.05;;;1.70;;
45354;SDS011;31091;48.758;9.150;2023-07-29T10:01:58;3.60;;;1.30;;
45354;SDS011;31091;48.758;9.150;2023-07-29T10:04:43;5.03;;;1.63;;
45354;SDS011;31091;48.758;9.150;2023-07-29T10:07:28;2.55;;;1.63;;
45354;SDS011;31091;48.758;9.150;2023-07-29T10:10:14;1.80;;;1.38;;
45354;SDS011;31091;48.758;9.150;2023-07-29T10:12:59;3.08;;;1.50;;
45354;SDS011;31091;48.758;9.150;2023-07-29T10:15:46;2.53;;;1.83;;
45354;SDS011;31091;48.758;9.150;2023-07-29T10:18:33;2.80;;;1.60;;
45354;SDS011;31091;48.758;9.150;2023-07-29T10:21:18;2.80;;;1.60;;
45354;SDS011;31091;48.758;9.150;2023-07-29T10:24:05;4.30;;;1.90;;
45354;SDS011;31091;48.758;9.150;2023-07-29T10:29:39;3.00;;;1.67;;
45354;SDS011;31091;48.758;9.150;2023-07-29T10:32:28;4.28;;;1.85;;
45354;SDS011;31091;48.758;9.150;2023-07-29T10:35:17;3.13;;;1.60;;
45354;SDS011;31091;48.758;9.150;2023-07-29T10:38:02;2.13;;;1.45;;
45354;SDS011;31091;48.758;9.150;2023-07-29T10:40:50;1.42;;;1.30;;
45354;SDS011;31091;48.758;9.150;2023-07-29T10:43:36;3.38;;;1.50;;
45354;SDS011;31091;48.758;9.150;2023-07-29T10:46:23;4.32;;;1.75;;
45354;SDS011;31091;48.758;9.150;2023-07-29T10:49:08;2.90;;;1.40;;
45354;SDS011;31091;48.758;9.150;2023-07-29T10:51:53;2.45;;;1.88;;
45354;SDS011;31091;48.758;9.150;2023-07-29T10:54:42;4.80;;;1.60;;
45354;SDS011;31091;48.758;9.150;2023-07-29T10:57:35;5.35;;;2.08;;
45354;SDS011;31091;48.758;9.150;2023-07-29T11:00:21;1.80;;;1.48;;
45354;SDS011;31091;48.758;9.150;2023-07-29T11:03:06;4.85;;;1.52;;
45354;SDS011;31091;48.758;9.150;2023-07-29T11:05:52;1.90;;;1.30;;
45354;SDS011;31091;48.758;9.150;2023-07-29T11:08:37;1.90;;;1.67;;
45354;SDS011;31091;48.758;9.150;2023-07-29T11:11:23;2.67;;;1.50;;
45354;SDS011;31091;48.758;9.150;2023-07-29T11:14:08;1.75;;;1.30;;
45354;SDS011;31091;48.758;9.150;2023-07-29T11:16:53;13.75;;;1.60;;
45354;SDS011;31091;48.758;9.150;2023-07-29T11:19:38;2.58;;;1.50;;
45354;SDS011;31091;48.758;9.150;2023-07-29T11:22:25;3.25;;;1.90;;
45354;SDS011;31091;48.758;9.150;2023-07-29T11:25:12;3.03;;;1.70;;
45354;SDS011;31091;48.758;9.150;2023-07-29T11:27:58;1.80;;;1.30;;
45354;SDS011;31091;48.758;9.150;2023-07-29T11:30:43;4.07;;;1.50;;
45354;SDS011;31091;48.758;9.150;2023-07-29T11:33:28;2.22;;;1.77;;
45354;SDS011;31091;48.758;9.150;2023-07-29T11:36:17;2.25;;;1.80;;
45354;SDS011;31091;48.758;9.150;2023-07-29T11:39:09;1.35;;;1.25;;
45354;SDS011;31091;48.758;9.150;2023-07-29T11:41:54;3.25;;;1.50;;
45354;SDS011;31091;48.758;9.150;2023-07-29T11:44:39;1.73;;;1.38;;
45354;SDS011;31091;48.758;9.150;2023-07-29T11:47:24;2.08;;;1.33;;
45354;SDS011;31091;48.758;9.150;2023-07-29T11:50:11;1.38;;;1.05;;
45354;SDS011;31091;48.758;9.150;2023-07-29T11:52:58;3.38;;;1.50;;
45354;SDS011;31091;48.758;9.150;2023-07-29T11:55:43;2.70;;;1.60;;
45354;SDS011;31091;48.758;9.150;2023-07-29T11:58:28;4.65;;;1.60;;
45354;SDS011;31091;48.758;9.150;2023-07-29T12:01:14;6.68;;;3.05;;
45354;SDS011;31091;48.758;9.150;2023-07-29T12:03:59;3.20;;;1.73;;
45354;SDS011;31091;48.758;9.150;2023-07-29T12:06:45;2.40;;;1.20;;
45354;SDS011;31091;48.758;9.150;2023-07-29T12:09:30;1.77;;;1.48;;
45354;SDS011;31091;48.758;9.150;2023-07-29T12:12:15;1.92;;;1.55;;
45354;SDS011;31091;48.758;9.150;2023-07-29T12:15:01;3.00;;;1.55;;
45354;SDS011;31091;48.758;9.150;2023-07-29T12:17:46;2.58;;;1.60;;
45354;SDS011;31091;48.758;9.150;2023-07-29T12:20:31;3.88;;;1.77;;
45354;SDS011;31091;48.758;9.150;2023-07-29T12:23:17;2.38;;;1.80;;
45354;SDS011;31091;48.758;9.150;2023-07-29T12:26:09;2.60;;;1.60;;
45354;SDS011;31091;48.758;9.150;2023-07-29T12:28:54;3.42;;;1.50;;
45354;SDS011;31091;48.758;9.150;2023-07-29T12:31:39;3.38;;;1.60;;
45354;SDS011;31091;48.758;9.150;2023-07-29T12:34:25;4.10;;;1.73;;
45354;SDS011;31091;48.758;9.150;2023-07-29T12:37:10;2.10;;;1.45;;
45354;SDS011;31091;48.758;9.150;2023-07-29T12:39:56;2.38;;;1.90;;
45354;SDS011;31091;48.758;9.150;2023-07-29T12:42:41;2.17;;;1.60;;
45354;SDS011;31091;48.758;9.150;2023-07-29T12:45:27;2.97;;;1.70;;
45354;SDS011;31091;48.758;9.150;2023-07-29T12:48:13;3.40;;;1.60;;
45354;SDS011;31091;48.758;9.150;2023-07-29T12:51:00;2.60;;;1.58;;
45354;SDS011;31091;48.758;9.150;2023-07-29T12:53:45;3.78;;;1.65;;
45354;SDS011;31091;48.758;9.150;2023-07-29T12:56:31;2.92;;;1.83;;
45354;SDS011;31091;48.758;9.150;2023-07-29T12:59:16;2.15;;;1.60;;
45354;SDS011;31091;48.758;9.150;2023-07-29T13:02:01;3.42;;;2.17;;
45354;SDS011;31091;48.758;9.150;2023-07-29T13:04:46;2.42;;;2.05;;
45354;SDS011;31091;48.758;9.150;2023-07-29T13:07:32;2.58;;;1.92;;
45354;SDS011;31091;48.758;9.150;2023-07-29T13:10:17;2.63;;;1.60;;
45354;SDS011;31091;48.758;9.150;2023-07-29T13:13:02;3.45;;;1.83;;
45354;SDS011;31091;48.758;9.150;2023-07-29T13:15:47;5.88;;;1.60;;
45354;SDS011;31091;48.758;9.150;2023-07-29T13:18:33;3.47;;;1.65;;
45354;SDS011;31091;48.758;9.150;2023-07-29T13:21:18;7.25;;;2.00;;
45354;SDS011;31091;48.758;9.150;2023-07-29T13:24:03;5.03;;;1.60;;
45354;SDS011;31091;48.758;9.150;2023-07-29T13:26:48;3.08;;;1.80;;
45354;SDS011;31091;48.758;9.150;2023-07-29T13:29:33;2.15;;;1.50;;
45354;SDS011;31091;48.758;9.150;2023-07-29T13:32:19;1.45;;;1.30;;
45354;SDS011;31091;48.758;9.150;2023-07-29T13:35:04;2.42;;;1.90;;
45354;SDS011;31091;48.758;9.150;2023-07-29T13:37:49;2.08;;;1.65;;
45354;SDS011;31091;48.758;9.150;2023-07-29T13:40:34;3.80;;;1.92;;
45354;SDS011;31091;48.758;9.150;2023-07-29T13:43:20;3.60;;;1.38;;
45354;SDS011;31091;48.758;9.150;2023-07-29T13:46:05;3.05;;;2.17;;
45354;SDS011;31091;48.758;9.150;2023-07-29T13:48:50;2.75;;;1.50;;
45354;SDS011;31091;48.758;9.150;2023-07-29T13:51:35;2.35;;;1.73;;
45354;SDS011;31091;48.758;9.150;2023-07-29T13:54:21;3.30;;;2.10;;
45354;SDS011;31091;48.758;9.150;2023-07-29T13:57:06;2.80;;;1.98;;
45354;SDS011;31091;48.758;9.150;2023-07-29T13:59:52;3.10;;;2.05;;
45354;SDS011;31091;48.758;9.150;2023-07-29T14:02:37;4.28;;;2.05;;
45354;SDS011;31091;48.758;9.150;2023-07-29T14:05:22;2.42;;;1.70;;
45354;SDS011;31091;48.758;9.150;2023-07-29T14:08:10;3.95;;;1.80;;
45354;SDS011;31091;48.758;9.150;2023-07-29T14:10:56;1.77;;;1.40;;
45354;SDS011;31091;48.758;9.150;2023-07-29T14:13:41;2.05;;;1.38;;
45354;SDS011;31091;48.758;9.150;2023-07-29T14:16:26;2.72;;;1.63;;
45354;SDS011;31091;48.758;9.150;2023-07-29T14:19:11;3.58;;;1.88;;
45354;SDS011;31091;48.758;9.150;2023-07-29T14:21:58;4.07;;;1.60;;
45354;SDS011;31091;48.758;9.150;2023-07-29T14:24:43;8.82;;;2.22;;
45354;SDS011;31091;48.758;9.150;2023-07-29T14:27:28;2.15;;;1.60;;
45354;SDS011;31091;48.758;9.150;2023-07-29T14:30:13;2.72;;;1.80;;
45354;SDS011;31091;48.758;9.150;2023-07-29T14:32:59;2.97;;;1.67;;
45354;SDS011;31091;48.758;9.150;2023-07-29T14:35:44;2.35;;;1.65;;
45354;SDS011;31091;48.758;9.150;2023-07-29T14:38:29;2.20;;;1.75;;
45354;SDS011;31091;48.758;9.150;2023-07-29T14:41:15;3.47;;;2.20;;
45354;SDS011;31091;48.758;9.150;2023-07-29T14:44:00;3.13;;;1.98;;
45354;SDS011;31091;48.758;9.150;2023-07-29T14:46:45;4.55;;;2.03;;
45354;SDS011;31091;48.758;9.150;2023-07-29T14:49:30;5.43;;;2.30;;
45354;SDS011;31091;48.758;9.150;2023-07-29T14:52:15;2.72;;;1.70;;
45354;SDS011;31091;48.758;9.150;2023-07-29T14:55:01;2.33;;;1.70;;
45354;SDS011;31091;48.758;9.150;2023-07-29T14:57:46;5.07;;;2.10;;
45354;SDS011;31091;48.758;9.150;2023-07-29T15:00:32;4.05;;;1.90;;
45354;SDS011;31091;48.758;9.150;2023-07-29T15:03:18;2.40;;;1.63;;
45354;SDS011;31091;48.758;9.150;2023-07-29T15:06:03;2.80;;;2.10;;
45354;SDS011;31091;48.758;9.150;2023-07-29T15:08:48;4.82;;;2.30;;
45354;SDS011;31091;48.758;9.150;2023-07-29T15:11:33;7.03;;;2.88;;
45354;SDS011;31091;48.758;9.150;2023-07-29T15:14:19;18.27;;;4.32;;
45354;SDS011;31091;48.758;9.150;2023-07-29T15:17:04;9.73;;;2.75;;
45354;SDS011;31091;48.758;9.150;2023-07-29T15:19:49;2.97;;;1.67;;
45354;SDS011;31091;48.758;9.150;2023-07-29T15:22:35;3.22;;;2.20;;
45354;SDS011;31091;48.758;9.150;2023-07-29T15:25:20;9.55;;;4.00;;
45354;SDS011;31091;48.758;9.150;2023-07-29T15:28:06;8.27;;;3.85;;
45354;SDS011;31091;48.758;9.150;2023-07-29T15:30:51;19.05;;;6.25;;
45354;SDS011;31091;48.758;9.150;2023-07-29T15:33:37;12.43;;;4.50;;
45354;SDS011;31091;48.758;9.150;2023-07-29T15:36:22;11.98;;;4.63;;
45354;SDS011;31091;48.758;9.150;2023-07-29T15:39:07;18.05;;;5.68;;
45354;SDS011;31091;48.758;9.150;2023-07-29T15:41:53;21.45;;;7.47;;
45354;SDS011;31091;48.758;9.150;2023-07-29T15:44:38;7.82;;;3.42;;
45354;SDS011;31091;48.758;9.150;2023-07-29T15:47:24;9.25;;;3.38;;
45354;SDS011;31091;48.758;9.150;2023-07-29T15:50:09;7.35;;;2.78;;
45354;SDS011;31091;48.758;9.150;2023-07-29T15:52:55;11.63;;;3.58;;
45354;SDS011;31091;48.758;9.150;2023-07-29T15:55:41;2.55;;;1.58;;
45354;SDS011;31091;48.758;9.150;2023-07-29T15:58:26;19.38;;;5.45;;
45354;SDS011;31091;48.758;9.150;2023-07-29T16:01:11;18.88;;;5.45;;
45354;SDS011;31091;48.758;9.150;2023-07-29T16:03:57;10.13;;;3.67;;
45354;SDS011;31091;48.758;9.150;2023-07-29T16:06:42;12.73;;;5.07;;
45354;SDS011;31091;48.758;9.150;2023-07-29T16:09:27;7.30;;;2.55;;
45354;SDS011;31091;48.758;9.150;2023-07-29T16:12:12;5.32;;;2.50;;
45354;SDS011;31091;48.758;9.150;2023-07-29T16:14:57;4.43;;;2.25;;
45354;SDS011;31091;48.758;9.150;2023-07-29T16:17:43;3.15;;;2.10;;
45354;SDS011;31091;48.758;9.150;2023-07-29T16:20:28;5.22;;;2.35;;
45354;SDS011;31091;48.758;9.150;2023-07-29T16:23:13;4.60;;;2.22;;
45354;SDS011;31091;48.758;9.150;2023-07-29T16:25:59;6.05;;;2.80;;
45354;SDS011;31091;48.758;9.150;2023-07-29T16:28:44;5.93;;;3.13;;
45354;SDS011;31091;48.758;9.150;2023-07-29T16:31:29;4.13;;;2.53;;
45354;SDS011;31091;48.758;9.150;2023-07-29T16:34:15;3.80;;;1.83;;
45354;SDS011;31091;48.758;9.150;2023-07-29T16:37:00;4.78;;;2.10;;
45354;SDS011;31091;48.758;9.150;2023-07-29T16:39:46;3.92;;;2.40;;
45354;SDS011;31091;48.758;9.150;2023-07-29T16:42:31;1.95;;;1.38;;
45354;SDS011;31091;48.758;9.150;2023-07-29T16:45:16;5.45;;;1.67;;
45354;SDS011;31091;48.758;9.150;2023-07-29T16:48:02;4.40;;;2.10;;
45354;SDS011;31091;48.758;9.150;2023-07-29T16:50:48;4.20;;;2.25;;